Map

Track Data

SID SEASON NUMBER BASIN SUBBASIN NAME ISO_TIME NATURE LAT LON WMO_WIND WMO_PRES WMO_AGENCY TRACK_TYPE DIST2LAND LANDFALL IFLAG USA_AGENCY USA_ATCF_ID USA_LAT USA_LON USA_RECORD USA_STATUS USA_WIND USA_PRES USA_SSHS USA_R34_NE USA_R34_SE USA_R34_SW USA_R34_NW USA_R50_NE USA_R50_SE USA_R50_SW USA_R50_NW USA_R64_NE USA_R64_SE USA_R64_SW USA_R64_NW USA_POCI USA_ROCI USA_RMW USA_EYE TOKYO_LAT TOKYO_LON TOKYO_GRADE TOKYO_WIND TOKYO_PRES TOKYO_R50_DIR TOKYO_R50_LONG TOKYO_R50_SHORT TOKYO_R30_DIR TOKYO_R30_LONG TOKYO_R30_SHORT TOKYO_LAND CMA_LAT CMA_LON CMA_CAT CMA_WIND CMA_PRES HKO_LAT HKO_LON HKO_CAT HKO_WIND HKO_PRES NEWDELHI_LAT NEWDELHI_LON NEWDELHI_GRADE NEWDELHI_WIND NEWDELHI_PRES NEWDELHI_CI NEWDELHI_DP NEWDELHI_POCI REUNION_LAT REUNION_LON REUNION_TYPE REUNION_WIND REUNION_PRES REUNION_TNUM REUNION_CI REUNION_RMW REUNION_R34_NE REUNION_R34_SE REUNION_R34_SW REUNION_R34_NW REUNION_R50_NE REUNION_R50_SE REUNION_R50_SW REUNION_R50_NW REUNION_R64_NE REUNION_R64_SE REUNION_R64_SW REUNION_R64_NW BOM_LAT BOM_LON BOM_TYPE BOM_WIND BOM_PRES BOM_TNUM BOM_CI BOM_RMW BOM_R34_NE BOM_R34_SE BOM_R34_SW BOM_R34_NW BOM_R50_NE BOM_R50_SE BOM_R50_SW BOM_R50_NW BOM_R64_NE BOM_R64_SE BOM_R64_SW BOM_R64_NW BOM_ROCI BOM_POCI BOM_EYE BOM_POS_METHOD BOM_PRES_METHOD NADI_LAT NADI_LON NADI_CAT NADI_WIND NADI_PRES WELLINGTON_LAT WELLINGTON_LON WELLINGTON_WIND WELLINGTON_PRES DS824_LAT DS824_LON DS824_STAGE DS824_WIND DS824_PRES TD9636_LAT TD9636_LON TD9636_STAGE TD9636_WIND TD9636_PRES TD9635_LAT TD9635_LON TD9635_WIND TD9635_PRES TD9635_ROCI NEUMANN_LAT NEUMANN_LON NEUMANN_CLASS NEUMANN_WIND NEUMANN_PRES MLC_LAT MLC_LON MLC_CLASS MLC_WIND MLC_PRES USA_GUST BOM_GUST BOM_GUST_PER REUNION_GUST REUNION_GUST_PER USA_SEAHGT USA_SEARAD_NE USA_SEARAD_SE USA_SEARAD_SW USA_SEARAD_NW STORM_SPEED STORM_DIR
1985317N12082 1985 109 NI BB NOT_NAMED 1985-11-13 06:00:00 NR 12.0000 81.9000 main 193 193 O_________O___ jtwc_io IO051985 12.0000 81.9000 25 -1 12.0000 81.9000 1 25 6 79
1985317N12082 1985 109 NI BB NOT_NAMED 1985-11-13 09:00:00 NR 12.0585 82.1999 main 221 221 P_________P___ IO051985 12.0576 82.2050 25 -1 12.0594 82.1948 1 25 6 80
1985317N12082 1985 109 NI BB NOT_NAMED 1985-11-13 12:00:00 NR 12.1000 82.5000 main 254 254 O_________O___ jtwc_io IO051985 12.1000 82.5000 25 -1 12.1000 82.5000 1 25 6 85
1985317N12082 1985 109 NI BB NOT_NAMED 1985-11-13 15:00:00 NR 12.1113 82.8043 main 286 286 P_________P___ IO051985 12.1149 82.7850 25 -1 12.1077 82.8236 1 25 6 91
1985317N12082 1985 109 NI BB NOT_NAMED 1985-11-13 18:00:00 NR 12.0937 83.1330 main 318 318 O_________P___ jtwc_io IO051985 12.1000 83.1000 25 -1 12.0873 83.1660 1 25 7 95
1985317N12082 1985 109 NI BB NOT_NAMED 1985-11-13 21:00:00 NR 12.0567 83.5052 main 361 361 P_________P___ IO051985 12.0650 83.4850 25 -1 12.0483 83.5253 1 25 8 97
1985317N12082 1985 109 NI BB NOT_NAMED 1985-11-14 00:00:00 NR 12.0000 83.9000 main 406 406 O_________O___ jtwc_io IO051985 12.0000 83.9000 25 -1 12.0000 83.9000 1 25 8 101
1985317N12082 1985 109 NI BB NOT_NAMED 1985-11-14 03:00:00 NR 11.9066 84.3072 main 450 450 P_________P___ IO051985 11.8924 84.3001 25 -1 11.9208 84.3144 1 25 8 103
1985317N12082 1985 109 NI BB NOT_NAMED 1985-11-14 06:00:00 NR 11.8201 84.7190 main 495 495 O_________P___ jtwc_io IO051985 11.8000 84.7000 25 -1 11.8403 84.7380 1 25 8 99
1985317N12082 1985 109 NI BB NOT_NAMED 1985-11-14 09:00:00 NR 11.7798 85.1250 main 538 538 P_________P___ IO051985 11.7700 85.1075 25 -1 11.7896 85.1425 1 25 8 92
1985317N12082 1985 109 NI BB NOT_NAMED 1985-11-14 12:00:00 NR 11.8000 85.5000 main 581 581 O_________O___ jtwc_io IO051985 11.8000 85.5000 25 -1 11.8000 85.5000 1 25 7 81
1985317N12082 1985 109 NI BB NOT_NAMED 1985-11-14 15:00:00 NR 11.8945 85.8714 main 623 623 P_________P___ IO051985 11.8625 85.8950 25 -1 11.9264 85.8479 1 26 7 69
1985317N12082 1985 109 NI BB NOT_NAMED 1985-11-14 18:00:00 NR 12.0561 86.1684 main 653 645 O_________P___ jtwc_io IO051985 12.0000 86.2000 25 -1 12.1123 86.1368 1 27 6 51
1985317N12082 1985 109 NI BB NOT_NAMED 1985-11-14 21:00:00 NR 12.2797 86.3611 main 653 636 P_________P___ IO051985 12.2424 86.3899 27 -1 12.3170 86.3323 1 28 5 27
1985317N12082 1985 109 NI BB NOT_NAMED 1985-11-15 00:00:00 NR 12.5000 86.4000 main 636 621 O_________O___ jtwc_io IO051985 12.5000 86.4000 30 -1 12.5000 86.4000 1 30 4 345
1985317N12082 1985 109 NI BB NOT_NAMED 1985-11-15 03:00:00 NR 12.6558 86.2540 main 613 582 P_________P___ IO051985 12.6876 86.1951 32 -1 12.6240 86.3129 1 31 5 304
1985317N12082 1985 109 NI BB NOT_NAMED 1985-11-15 06:00:00 NR 12.7588 86.0002 main 582 568 O_________P___ jtwc_io IO051985 12.8000 85.9000 35 0 12.7175 86.1005 1 32 5 287
1985317N12082 1985 109 NI BB NOT_NAMED 1985-11-15 09:00:00 NR 12.8036 85.7564 main 568 547 P_________P___ IO051985 12.8299 85.7000 35 0 12.7772 85.8128 1 33 5 275
1985317N12082 1985 109 NI BB NOT_NAMED 1985-11-15 12:00:00 NR 12.8000 85.5000 main 547 533 O_________O___ jtwc_io IO051985 12.8000 85.5000 35 0 12.8000 85.5000 2 35 5 265
1985317N12082 1985 109 NI BB NOT_NAMED 1985-11-15 15:00:00 NR 12.7595 85.2581 main 533 513 P_________P___ IO051985 12.7575 85.2650 35 0 12.7615 85.2512 2 36 5 258
1985317N12082 1985 109 NI BB NOT_NAMED 1985-11-15 18:00:00 NR 12.6962 84.9935 main 513 483 O_________P___ jtwc_io IO051985 12.7000 85.0000 35 0 12.6923 84.9870 2 37 6 257
1985317N12082 1985 109 NI BB NOT_NAMED 1985-11-15 21:00:00 NR 12.6310 84.7096 main 483 451 P_________P___ IO051985 12.6350 84.7150 37 0 12.6270 84.7043 2 38 6 261
1985317N12082 1985 109 NI BB NOT_NAMED 1985-11-16 00:00:00 NR 12.6000 84.4000 main 451 419 O_________O___ jtwc_io IO051985 12.6000 84.4000 40 0 12.6000 84.4000 2 40 6 270
1985317N12082 1985 109 NI BB NOT_NAMED 1985-11-16 03:00:00 NR 12.6281 84.0766 main 419 385 P_________P___ IO051985 12.6200 84.0575 42 0 12.6363 84.0958 2 42 7 279
1985317N12082 1985 109 NI BB NOT_NAMED 1985-11-16 06:00:00 NR 12.7085 83.7336 main 374 340 O_________P___ jtwc_io IO051985 12.7000 83.7000 45 0 12.7171 83.7671 2 45 7 287
1985317N12082 1985 109 NI BB NOT_NAMED 1985-11-16 09:00:00 NR 12.8333 83.3887 main 340 294 P_________P___ IO051985 12.8274 83.3724 47 0 12.8393 83.4050 2 47 8 292
1985317N12082 1985 109 NI BB NOT_NAMED 1985-11-16 12:00:00 NR 13.0000 83.0000 main 294 238 O_________O___ jtwc_io IO051985 13.0000 83.0000 50 0 13.0000 83.0000 2 50 9 292
1985317N12082 1985 109 NI BB NOT_NAMED 1985-11-16 15:00:00 NR 13.1751 82.5166 main 238 183 P_________P___ IO051985 13.1850 82.5225 50 0 13.1652 82.5107 2 50 11 291
1985317N12082 1985 109 NI BB NOT_NAMED 1985-11-16 18:00:00 NR 13.3841 81.9926 main 183 129 O_________P___ jtwc_io IO051985 13.4000 82.0000 50 0 13.3682 81.9851 2 50 11 294
1985317N12082 1985 109 NI BB NOT_NAMED 1985-11-16 21:00:00 NR 13.6160 81.4796 main 129 76 P_________P___ IO051985 13.6199 81.4923 50 0 13.6121 81.4669 2 50 11 298
1985317N12082 1985 109 NI BB NOT_NAMED 1985-11-17 00:00:00 NR 13.9000 81.0000 main 76 53 O_________O___ jtwc_io IO051985 13.9000 81.0000 50 0 13.9000 81.0000 2 50 11 305
1985317N12082 1985 109 NI BB NOT_NAMED 1985-11-17 03:00:00 NR 14.2584 80.5339 main 43 0 P_________P___ IO051985 14.2851 80.4977 52 0 14.2316 80.5700 2 48 11 313
1985317N12082 1985 109 NI BB NOT_NAMED 1985-11-17 06:00:00 NR 14.6524 80.1530 main 10 0 O_________P___ jtwc_io IO051985 14.7000 80.1000 55 0 14.6047 80.2061 2 47 10 322
1985317N12082 1985 109 NI BB NOT_NAMED 1985-11-17 09:00:00 NR 15.0252 79.9069 main 0 0 P_________P___ IO051985 15.0499 79.8749 50 0 15.0005 79.9390 2 46 8 336
1985317N12082 1985 109 NI BB NOT_NAMED 1985-11-17 12:00:00 NR 15.4000 79.8000 main 0 0 O_________O___ jtwc_io IO051985 15.4000 79.8000 45 0 15.4000 79.8000 2 45 8 352
1985317N12082 1985 109 NI BB NOT_NAMED 1985-11-17 15:00:00 NR 15.7941 79.7995 main 0 0 P_________P___ IO051985 15.7999 79.7900 40 0 15.7883 79.8089 2 40 8 8
1985317N12082 1985 109 NI BB NOT_NAMED 1985-11-17 18:00:00 NR 16.1827 79.9192 main 0 0 O_________P___ jtwc_io IO051985 16.2000 79.9000 35 0 16.1653 79.9383 2 35 8 23
1985317N12082 1985 109 NI BB NOT_NAMED 1985-11-17 21:00:00 NR 16.5487 80.1342 main 0 0 P_________P___ IO051985 16.5626 80.1198 30 -1 16.5347 80.1486 2 30 9 33
1985317N12082 1985 109 NI BB NOT_NAMED 1985-11-18 00:00:00 NR 16.9000 80.4000 main 0 O_________O___ jtwc_io IO051985 16.9000 80.4000 25 -1 16.9000 80.4000 1 25 9 36

About IBTrACS Database

This database is a web-friendly format of International Best Track Archive for Climate Stewardship (IBTrACS), a global best track data archive curated by NOAA dating back to 1842.

Updated: 2021-11-26